sensor_id;sensor_type;location;lat;lon;timestamp;pressure;altitude;pressure_sealevel;temperature
42119;BMP280;27783;42.782;23.274;2023-04-15T00:01:04;94766.03;;;7.52
42119;BMP280;27783;42.782;23.274;2023-04-15T00:03:29;94761.06;;;7.68
42119;BMP280;27783;42.782;23.274;2023-04-15T00:05:55;94762.66;;;7.48
42119;BMP280;27783;42.782;23.274;2023-04-15T00:08:20;94758.91;;;7.49
42119;BMP280;27783;42.782;23.274;2023-04-15T00:10:45;94752.63;;;7.30
42119;BMP280;27783;42.782;23.274;2023-04-15T00:13:11;94752.22;;;7.35
42119;BMP280;27783;42.782;23.274;2023-04-15T00:15:36;94745.88;;;7.26
42119;BMP280;27783;42.782;23.274;2023-04-15T00:18:02;94750.75;;;7.27
42119;BMP280;27783;42.782;23.274;2023-04-15T00:20:28;94748.16;;;7.10
42119;BMP280;27783;42.782;23.274;2023-04-15T00:22:53;94744.09;;;6.82
42119;BMP280;27783;42.782;23.274;2023-04-15T00:25:18;94750.06;;;6.72
42119;BMP280;27783;42.782;23.274;2023-04-15T00:27:44;94750.06;;;6.76
42119;BMP280;27783;42.782;23.274;2023-04-15T00:30:09;94763.16;;;6.96
42119;BMP280;27783;42.782;23.274;2023-04-15T00:32:35;94784.44;;;7.25
42119;BMP280;27783;42.782;23.274;2023-04-15T00:35:01;94779.97;;;7.05
42119;BMP280;27783;42.782;23.274;2023-04-15T00:37:26;94774.03;;;6.88
42119;BMP280;27783;42.782;23.274;2023-04-15T00:39:51;94768.78;;;6.88
42119;BMP280;27783;42.782;23.274;2023-04-15T00:42:16;94762.41;;;6.89
42119;BMP280;27783;42.782;23.274;2023-04-15T00:44:42;94763.13;;;7.06
42119;BMP280;27783;42.782;23.274;2023-04-15T00:47:07;94772.84;;;7.23
42119;BMP280;27783;42.782;23.274;2023-04-15T00:49:32;94767.66;;;6.85
42119;BMP280;27783;42.782;23.274;2023-04-15T00:51:59;94771.03;;;6.76
42119;BMP280;27783;42.782;23.274;2023-04-15T00:54:24;94770.28;;;6.68
42119;BMP280;27783;42.782;23.274;2023-04-15T00:56:49;94775.16;;;6.80
42119;BMP280;27783;42.782;23.274;2023-04-15T00:59:15;94781.50;;;6.89
42119;BMP280;27783;42.782;23.274;2023-04-15T01:01:41;94778.50;;;6.98
42119;BMP280;27783;42.782;23.274;2023-04-15T01:04:08;94773.63;;;6.82
42119;BMP280;27783;42.782;23.274;2023-04-15T01:06:35;94774.38;;;6.46
42119;BMP280;27783;42.782;23.274;2023-04-15T01:09:01;94777.72;;;6.29
42119;BMP280;27783;42.782;23.274;2023-04-15T01:11:27;94782.22;;;6.18
42119;BMP280;27783;42.782;23.274;2023-04-15T01:13:52;94782.94;;;6.26
42119;BMP280;27783;42.782;23.274;2023-04-15T01:16:18;94787.47;;;6.52
42119;BMP280;27783;42.782;23.274;2023-04-15T01:18:44;94777.72;;;6.19
42119;BMP280;27783;42.782;23.274;2023-04-15T01:21:09;94775.53;;;6.45
42119;BMP280;27783;42.782;23.274;2023-04-15T01:23:36;94769.50;;;6.31
42119;BMP280;27783;42.782;23.274;2023-04-15T01:26:02;94762.03;;;6.26
42119;BMP280;27783;42.782;23.274;2023-04-15T01:28:28;94778.84;;;6.25
42119;BMP280;27783;42.782;23.274;2023-04-15T01:33:31;94772.81;;;5.97
42119;BMP280;27783;42.782;23.274;2023-04-15T01:35:56;94775.25;;;5.60
42119;BMP280;27783;42.782;23.274;2023-04-15T01:38:22;94778.75;;;5.84
42119;BMP280;27783;42.782;23.274;2023-04-15T01:40:47;94775.03;;;5.88
42119;BMP280;27783;42.782;23.274;2023-04-15T01:43:12;94771.69;;;5.88
42119;BMP280;27783;42.782;23.274;2023-04-15T01:45:38;94776.50;;;5.76
42119;BMP280;27783;42.782;23.274;2023-04-15T01:48:03;94773.16;;;5.85
42119;BMP280;27783;42.782;23.274;2023-04-15T01:50:28;94773.91;;;5.89
42119;BMP280;27783;42.782;23.274;2023-04-15T01:52:53;94786.00;;;5.38
42119;BMP280;27783;42.782;23.274;2023-04-15T01:55:19;94787.84;;;5.37
42119;BMP280;27783;42.782;23.274;2023-04-15T01:57:44;94792.94;;;5.07
42119;BMP280;27783;42.782;23.274;2023-04-15T02:00:10;94796.78;;;5.26
42119;BMP280;27783;42.782;23.274;2023-04-15T02:02:35;94787.09;;;5.37
42119;BMP280;27783;42.782;23.274;2023-04-15T02:05:01;94785.88;;;5.17
42119;BMP280;27783;42.782;23.274;2023-04-15T02:07:26;94781.19;;;4.81
42119;BMP280;27783;42.782;23.274;2023-04-15T02:09:53;94794.97;;;4.81
42119;BMP280;27783;42.782;23.274;2023-04-15T02:12:18;94810.53;;;4.64
42119;BMP280;27783;42.782;23.274;2023-04-15T02:14:43;94812.00;;;4.65
42119;BMP280;27783;42.782;23.274;2023-04-15T02:17:08;94816.84;;;4.63
42119;BMP280;27783;42.782;23.274;2023-04-15T02:19:34;94819.84;;;4.68
42119;BMP280;27783;42.782;23.274;2023-04-15T02:22:00;94811.81;;;4.87
42119;BMP280;27783;42.782;23.274;2023-04-15T02:24:26;94818.94;;;4.48
42119;BMP280;27783;42.782;23.274;2023-04-15T02:26:52;94829.66;;;4.39
42119;BMP280;27783;42.782;23.274;2023-04-15T02:29:17;94819.50;;;4.70
42119;BMP280;27783;42.782;23.274;2023-04-15T02:31:42;94820.59;;;4.65
42119;BMP280;27783;42.782;23.274;2023-04-15T02:34:08;94822.22;;;4.83
42119;BMP280;27783;42.782;23.274;2023-04-15T02:36:34;94818.13;;;4.86
42119;BMP280;27783;42.782;23.274;2023-04-15T02:38:59;94808.84;;;4.92
42119;BMP280;27783;42.782;23.274;2023-04-15T02:41:24;94808.38;;;4.76
42119;BMP280;27783;42.782;23.274;2023-04-15T02:43:52;94808.94;;;4.56
42119;BMP280;27783;42.782;23.274;2023-04-15T02:46:17;94807.69;;;4.40
42119;BMP280;27783;42.782;23.274;2023-04-15T02:48:42;94814.72;;;4.36
42119;BMP280;27783;42.782;23.274;2023-04-15T02:51:18;94819.06;;;4.22
42119;BMP280;27783;42.782;23.274;2023-04-15T02:53:44;94808.00;;;4.35
42119;BMP280;27783;42.782;23.274;2023-04-15T02:56:09;94803.59;;;4.39
42119;BMP280;27783;42.782;23.274;2023-04-15T02:58:35;94805.47;;;4.42
42119;BMP280;27783;42.782;23.274;2023-04-15T03:01:01;94804.78;;;4.48
42119;BMP280;27783;42.782;23.274;2023-04-15T03:03:26;94810.75;;;4.10
42119;BMP280;27783;42.782;23.274;2023-04-15T03:05:52;94812.34;;;4.18
42119;BMP280;27783;42.782;23.274;2023-04-15T03:08:17;94820.19;;;4.21
42119;BMP280;27783;42.782;23.274;2023-04-15T03:10:43;94814.66;;;3.91
42119;BMP280;27783;42.782;23.274;2023-04-15T03:13:08;94818.19;;;3.76
42119;BMP280;27783;42.782;23.274;2023-04-15T03:15:33;94807.44;;;3.78
42119;BMP280;27783;42.782;23.274;2023-04-15T03:17:59;94831.91;;;3.70
42119;BMP280;27783;42.782;23.274;2023-04-15T03:20:24;94826.75;;;3.77
42119;BMP280;27783;42.782;23.274;2023-04-15T03:22:49;94842.22;;;3.34
42119;BMP280;27783;42.782;23.274;2023-04-15T03:25:15;94853.09;;;3.40
42119;BMP280;27783;42.782;23.274;2023-04-15T03:27:40;94850.28;;;3.26
42119;BMP280;27783;42.782;23.274;2023-04-15T03:30:05;94849.97;;;3.02
42119;BMP280;27783;42.782;23.274;2023-04-15T03:32:31;94847.25;;;2.96
42119;BMP280;27783;42.782;23.274;2023-04-15T03:34:56;94863.03;;;3.06
42119;BMP280;27783;42.782;23.274;2023-04-15T03:37:22;94865.16;;;3.51
42119;BMP280;27783;42.782;23.274;2023-04-15T03:39:47;94860.16;;;3.14
42119;BMP280;27783;42.782;23.274;2023-04-15T03:42:12;94863.25;;;3.23
42119;BMP280;27783;42.782;23.274;2023-04-15T03:44:37;94866.78;;;3.08
42119;BMP280;27783;42.782;23.274;2023-04-15T03:47:03;94862.53;;;3.22
42119;BMP280;27783;42.782;23.274;2023-04-15T03:49:28;94869.72;;;3.32
42119;BMP280;27783;42.782;23.274;2023-04-15T03:51:53;94872.69;;;3.59
42119;BMP280;27783;42.782;23.274;2023-04-15T03:54:18;94882.72;;;3.57
42119;BMP280;27783;42.782;23.274;2023-04-15T03:56:44;94882.22;;;2.98
42119;BMP280;27783;42.782;23.274;2023-04-15T03:59:09;94890.53;;;2.82
42119;BMP280;27783;42.782;23.274;2023-04-15T04:01:35;94891.72;;;2.87
42119;BMP280;27783;42.782;23.274;2023-04-15T04:04:00;94894.53;;;3.01
42119;BMP280;27783;42.782;23.274;2023-04-15T04:06:26;94894.06;;;3.17
42119;BMP280;27783;42.782;23.274;2023-04-15T04:08:51;94887.34;;;3.16
42119;BMP280;27783;42.782;23.274;2023-04-15T04:11:16;94876.50;;;3.11
42119;BMP280;27783;42.782;23.274;2023-04-15T04:13:41;94889.56;;;3.15
42119;BMP280;27783;42.782;23.274;2023-04-15T04:16:07;94892.75;;;3.30
42119;BMP280;27783;42.782;23.274;2023-04-15T04:18:32;94889.53;;;3.40
42119;BMP280;27783;42.782;23.274;2023-04-15T04:20:57;94894.47;;;3.45
42119;BMP280;27783;42.782;23.274;2023-04-15T04:23:22;94889.91;;;3.38
42119;BMP280;27783;42.782;23.274;2023-04-15T04:25:48;94896.31;;;3.44
42119;BMP280;27783;42.782;23.274;2023-04-15T04:28:13;94898.47;;;3.39
42119;BMP280;27783;42.782;23.274;2023-04-15T04:30:38;94889.63;;;3.47
42119;BMP280;27783;42.782;23.274;2023-04-15T04:33:04;94891.53;;;3.75
42119;BMP280;27783;42.782;23.274;2023-04-15T04:35:29;94891.88;;;3.73
42119;BMP280;27783;42.782;23.274;2023-04-15T04:37:54;94893.50;;;4.16
42119;BMP280;27783;42.782;23.274;2023-04-15T04:40:20;94893.59;;;4.23
42119;BMP280;27783;42.782;23.274;2023-04-15T04:42:46;94895.47;;;4.26
42119;BMP280;27783;42.782;23.274;2023-04-15T04:45:11;94893.75;;;4.37
42119;BMP280;27783;42.782;23.274;2023-04-15T04:47:37;94896.88;;;4.52
42119;BMP280;27783;42.782;23.274;2023-04-15T04:50:02;94907.06;;;4.64
42119;BMP280;27783;42.782;23.274;2023-04-15T04:52:27;94895.78;;;4.53
42119;BMP280;27783;42.782;23.274;2023-04-15T04:54:53;94899.50;;;4.56
42119;BMP280;27783;42.782;23.274;2023-04-15T04:57:18;94910.59;;;4.85
42119;BMP280;27783;42.782;23.274;2023-04-15T04:59:43;94897.41;;;5.14
42119;BMP280;27783;42.782;23.274;2023-04-15T05:02:08;94908.41;;;5.36
42119;BMP280;27783;42.782;23.274;2023-04-15T05:04:34;94911.34;;;5.31
42119;BMP280;27783;42.782;23.274;2023-04-15T05:07:00;94914.09;;;5.48
42119;BMP280;27783;42.782;23.274;2023-04-15T05:09:26;94907.69;;;5.39
42119;BMP280;27783;42.782;23.274;2023-04-15T05:11:53;94912.50;;;5.37
42119;BMP280;27783;42.782;23.274;2023-04-15T05:14:18;94910.00;;;5.54
42119;BMP280;27783;42.782;23.274;2023-04-15T05:16:43;94908.69;;;5.77
42119;BMP280;27783;42.782;23.274;2023-04-15T05:19:09;94923.28;;;5.81
42119;BMP280;27783;42.782;23.274;2023-04-15T05:21:34;94913.19;;;5.83
42119;BMP280;27783;42.782;23.274;2023-04-15T05:24:00;94922.28;;;6.06
42119;BMP280;27783;42.782;23.274;2023-04-15T05:26:25;94925.72;;;6.23
42119;BMP280;27783;42.782;23.274;2023-04-15T05:28:51;94924.19;;;6.19
42119;BMP280;27783;42.782;23.274;2023-04-15T05:31:16;94932.53;;;6.45
42119;BMP280;27783;42.782;23.274;2023-04-15T05:33:42;94929.19;;;6.48
42119;BMP280;27783;42.782;23.274;2023-04-15T05:36:07;94927.72;;;6.60
42119;BMP280;27783;42.782;23.274;2023-04-15T05:38:32;94918.44;;;6.93
42119;BMP280;27783;42.782;23.274;2023-04-15T05:40:58;94918.81;;;7.05
42119;BMP280;27783;42.782;23.274;2023-04-15T05:43:23;94926.31;;;7.20
42119;BMP280;27783;42.782;23.274;2023-04-15T05:45:48;94910.22;;;7.39
42119;BMP280;27783;42.782;23.274;2023-04-15T05:48:14;94919.94;;;7.59
42119;BMP280;27783;42.782;23.274;2023-04-15T05:50:40;94936.00;;;7.84
42119;BMP280;27783;42.782;23.274;2023-04-15T05:53:05;94934.47;;;8.04
42119;BMP280;27783;42.782;23.274;2023-04-15T05:55:31;94936.28;;;8.27
42119;BMP280;27783;42.782;23.274;2023-04-15T05:57:56;94936.16;;;8.61
42119;BMP280;27783;42.782;23.274;2023-04-15T06:00:22;94936.22;;;8.48
42119;BMP280;27783;42.782;23.274;2023-04-15T06:02:47;94936.47;;;8.70
42119;BMP280;27783;42.782;23.274;2023-04-15T06:05:12;94938.31;;;8.80
42119;BMP280;27783;42.782;23.274;2023-04-15T06:07:38;94946.19;;;9.36
42119;BMP280;27783;42.782;23.274;2023-04-15T06:10:04;94941.09;;;9.15
42119;BMP280;27783;42.782;23.274;2023-04-15T06:12:29;94955.41;;;9.11
42119;BMP280;27783;42.782;23.274;2023-04-15T06:14:55;94950.03;;;9.28
42119;BMP280;27783;42.782;23.274;2023-04-15T06:17:21;94941.09;;;10.04
42119;BMP280;27783;42.782;23.274;2023-04-15T06:19:46;94958.34;;;10.12
42119;BMP280;27783;42.782;23.274;2023-04-15T06:22:11;94953.72;;;10.23
42119;BMP280;27783;42.782;23.274;2023-04-15T06:24:36;94953.69;;;11.14
42119;BMP280;27783;42.782;23.274;2023-04-15T06:27:02;94958.00;;;10.75
42119;BMP280;27783;42.782;23.274;2023-04-15T06:29:28;94962.28;;;11.47
42119;BMP280;27783;42.782;23.274;2023-04-15T06:31:53;94961.00;;;11.03
42119;BMP280;27783;42.782;23.274;2023-04-15T06:34:19;94959.94;;;11.78
42119;BMP280;27783;42.782;23.274;2023-04-15T06:36:44;94967.44;;;11.31
42119;BMP280;27783;42.782;23.274;2023-04-15T06:39:09;94972.53;;;11.89
42119;BMP280;27783;42.782;23.274;2023-04-15T06:41:35;94970.63;;;12.53
42119;BMP280;27783;42.782;23.274;2023-04-15T06:44:00;94973.06;;;12.45
42119;BMP280;27783;42.782;23.274;2023-04-15T06:46:25;94978.13;;;11.95
42119;BMP280;27783;42.782;23.274;2023-04-15T06:48:50;94980.41;;;11.93
42119;BMP280;27783;42.782;23.274;2023-04-15T06:51:16;94972.91;;;12.74
42119;BMP280;27783;42.782;23.274;2023-04-15T06:53:41;94966.88;;;12.73
42119;BMP280;27783;42.782;23.274;2023-04-15T06:56:08;94976.88;;;13.00
42119;BMP280;27783;42.782;23.274;2023-04-15T06:58:33;94980.81;;;13.12
42119;BMP280;27783;42.782;23.274;2023-04-15T07:00:58;94972.72;;;13.53
42119;BMP280;27783;42.782;23.274;2023-04-15T07:03:24;94983.03;;;12.56
42119;BMP280;27783;42.782;23.274;2023-04-15T07:05:50;94961.72;;;12.25
42119;BMP280;27783;42.782;23.274;2023-04-15T07:08:15;94961.19;;;12.94
42119;BMP280;27783;42.782;23.274;2023-04-15T07:10:40;94967.47;;;12.81
42119;BMP280;27783;42.782;23.274;2023-04-15T07:13:06;94958.13;;;13.45
42119;BMP280;27783;42.782;23.274;2023-04-15T07:15:32;94953.56;;;14.67
42119;BMP280;27783;42.782;23.274;2023-04-15T07:17:58;94953.34;;;14.18
42119;BMP280;27783;42.782;23.274;2023-04-15T07:20:23;94963.81;;;13.94
42119;BMP280;27783;42.782;23.274;2023-04-15T07:22:48;94949.16;;;14.48
42119;BMP280;27783;42.782;23.274;2023-04-15T07:25:13;94958.41;;;14.13
42119;BMP280;27783;42.782;23.274;2023-04-15T07:27:39;94946.75;;;14.93
42119;BMP280;27783;42.782;23.274;2023-04-15T07:30:05;94956.22;;;14.67
42119;BMP280;27783;42.782;23.274;2023-04-15T07:32:30;94961.50;;;15.34
42119;BMP280;27783;42.782;23.274;2023-04-15T07:34:57;94957.13;;;16.46
42119;BMP280;27783;42.782;23.274;2023-04-15T07:37:22;94957.63;;;16.74
42119;BMP280;27783;42.782;23.274;2023-04-15T07:39:48;94963.25;;;16.76
42119;BMP280;27783;42.782;23.274;2023-04-15T07:42:14;94959.13;;;16.96
42119;BMP280;27783;42.782;23.274;2023-04-15T07:44:39;94964.06;;;16.85
42119;BMP280;27783;42.782;23.274;2023-04-15T07:47:04;94969.22;;;16.47
42119;BMP280;27783;42.782;23.274;2023-04-15T07:49:30;94967.78;;;16.87
42119;BMP280;27783;42.782;23.274;2023-04-15T07:51:55;94970.44;;;16.34
42119;BMP280;27783;42.782;23.274;2023-04-15T07:54:21;94968.88;;;16.57
42119;BMP280;27783;42.782;23.274;2023-04-15T07:56:47;94971.78;;;15.81
42119;BMP280;27783;42.782;23.274;2023-04-15T07:59:13;94967.91;;;17.26
42119;BMP280;27783;42.782;23.274;2023-04-15T08:01:39;94972.09;;;17.65
42119;BMP280;27783;42.782;23.274;2023-04-15T08:04:04;94982.38;;;16.83
42119;BMP280;27783;42.782;23.274;2023-04-15T08:06:30;94974.81;;;17.44
42119;BMP280;27783;42.782;23.274;2023-04-15T08:08:55;94975.84;;;18.06
42119;BMP280;27783;42.782;23.274;2023-04-15T08:11:22;94984.53;;;15.37
42119;BMP280;27783;42.782;23.274;2023-04-15T08:13:48;94972.19;;;17.23
42119;BMP280;27783;42.782;23.274;2023-04-15T08:18:40;94980.88;;;17.15
42119;BMP280;27783;42.782;23.274;2023-04-15T08:21:06;94979.03;;;16.70
42119;BMP280;27783;42.782;23.274;2023-04-15T08:23:32;94974.69;;;17.48
42119;BMP280;27783;42.782;23.274;2023-04-15T08:25:57;94968.84;;;18.82
42119;BMP280;27783;42.782;23.274;2023-04-15T08:28:23;94966.00;;;17.56
42119;BMP280;27783;42.782;23.274;2023-04-15T08:30:48;94971.66;;;16.53
42119;BMP280;27783;42.782;23.274;2023-04-15T08:33:13;94949.53;;;19.04
42119;BMP280;27783;42.782;23.274;2023-04-15T08:35:39;94961.28;;;17.30
42119;BMP280;27783;42.782;23.274;2023-04-15T08:38:05;94954.00;;;18.81
42119;BMP280;27783;42.782;23.274;2023-04-15T08:40:32;94963.94;;;17.98
42119;BMP280;27783;42.782;23.274;2023-04-15T08:42:59;94969.88;;;17.34
42119;BMP280;27783;42.782;23.274;2023-04-15T08:45:27;94962.63;;;17.05
42119;BMP280;27783;42.782;23.274;2023-04-15T08:47:52;94953.41;;;18.77
42119;BMP280;27783;42.782;23.274;2023-04-15T08:50:19;94954.69;;;18.37
42119;BMP280;27783;42.782;23.274;2023-04-15T08:52:45;94944.94;;;19.04
42119;BMP280;27783;42.782;23.274;2023-04-15T08:55:10;94950.75;;;17.56
42119;BMP280;27783;42.782;23.274;2023-04-15T08:57:36;94941.44;;;17.99
42119;BMP280;27783;42.782;23.274;2023-04-15T09:00:02;94953.06;;;18.22
42119;BMP280;27783;42.782;23.274;2023-04-15T09:02:28;94933.16;;;19.19
42119;BMP280;27783;42.782;23.274;2023-04-15T09:04:53;94935.00;;;18.96
42119;BMP280;27783;42.782;23.274;2023-04-15T09:07:18;94931.28;;;18.59
42119;BMP280;27783;42.782;23.274;2023-04-15T09:09:44;94926.97;;;19.05
42119;BMP280;27783;42.782;23.274;2023-04-15T09:12:10;94926.44;;;19.50
42119;BMP280;27783;42.782;23.274;2023-04-15T09:14:36;94923.44;;;18.99
42119;BMP280;27783;42.782;23.274;2023-04-15T09:17:03;94927.59;;;19.49
42119;BMP280;27783;42.782;23.274;2023-04-15T09:19:28;94920.28;;;19.01
42119;BMP280;27783;42.782;23.274;2023-04-15T09:21:54;94925.81;;;18.36
42119;BMP280;27783;42.782;23.274;2023-04-15T09:24:21;94910.47;;;19.15
42119;BMP280;27783;42.782;23.274;2023-04-15T09:26:46;94923.28;;;18.33
42119;BMP280;27783;42.782;23.274;2023-04-15T09:29:11;94922.25;;;18.56
42119;BMP280;27783;42.782;23.274;2023-04-15T09:31:40;94915.47;;;18.73
42119;BMP280;27783;42.782;23.274;2023-04-15T09:34:05;94913.06;;;18.49
42119;BMP280;27783;42.782;23.274;2023-04-15T09:39:26;94915.84;;;18.28
42119;BMP280;27783;42.782;23.274;2023-04-15T09:42:04;94914.63;;;18.02
42119;BMP280;27783;42.782;23.274;2023-04-15T09:44:30;94914.25;;;18.30
42119;BMP280;27783;42.782;23.274;2023-04-15T09:46:57;94912.16;;;18.43
42119;BMP280;27783;42.782;23.274;2023-04-15T09:49:23;94909.81;;;18.71
42119;BMP280;27783;42.782;23.274;2023-04-15T09:51:48;94917.38;;;18.72
42119;BMP280;27783;42.782;23.274;2023-04-15T09:54:18;94912.34;;;18.66
42119;BMP280;27783;42.782;23.274;2023-04-15T09:56:44;94918.53;;;18.63
42119;BMP280;27783;42.782;23.274;2023-04-15T09:59:10;94917.03;;;18.09
42119;BMP280;27783;42.782;23.274;2023-04-15T10:01:36;94922.28;;;17.83
42119;BMP280;27783;42.782;23.274;2023-04-15T10:04:02;94910.00;;;17.47
42119;BMP280;27783;42.782;23.274;2023-04-15T10:06:29;94919.94;;;17.55
42119;BMP280;27783;42.782;23.274;2023-04-15T10:08:56;94919.63;;;17.92
42119;BMP280;27783;42.782;23.274;2023-04-15T10:11:21;94917.75;;;18.10
42119;BMP280;27783;42.782;23.274;2023-04-15T10:13:48;94894.66;;;18.77
42119;BMP280;27783;42.782;23.274;2023-04-15T10:16:14;94905.78;;;18.32
42119;BMP280;27783;42.782;23.274;2023-04-15T10:18:44;94898.66;;;18.37
42119;BMP280;27783;42.782;23.274;2023-04-15T10:21:10;94901.94;;;18.33
42119;BMP280;27783;42.782;23.274;2023-04-15T10:23:37;94904.91;;;18.52
42119;BMP280;27783;42.782;23.274;2023-04-15T10:26:03;94900.28;;;18.44
42119;BMP280;27783;42.782;23.274;2023-04-15T10:28:28;94898.06;;;19.44
42119;BMP280;27783;42.782;23.274;2023-04-15T10:30:54;94882.06;;;18.69
42119;BMP280;27783;42.782;23.274;2023-04-15T10:33:21;94884.00;;;18.59
42119;BMP280;27783;42.782;23.274;2023-04-15T10:35:47;94881.84;;;19.16
42119;BMP280;27783;42.782;23.274;2023-04-15T10:43:38;94880.41;;;18.18
42119;BMP280;27783;42.782;23.274;2023-04-15T10:46:04;94877.66;;;17.75
42119;BMP280;27783;42.782;23.274;2023-04-15T10:48:30;94873.00;;;18.92
42119;BMP280;27783;42.782;23.274;2023-04-15T10:50:55;94867.31;;;19.08
42119;BMP280;27783;42.782;23.274;2023-04-15T10:53:26;94867.28;;;19.57
42119;BMP280;27783;42.782;23.274;2023-04-15T10:55:52;94866.72;;;19.13
42119;BMP280;27783;42.782;23.274;2023-04-15T10:58:17;94867.75;;;19.47
42119;BMP280;27783;42.782;23.274;2023-04-15T11:00:43;94860.38;;;19.33
42119;BMP280;27783;42.782;23.274;2023-04-15T11:03:14;94867.78;;;18.98
42119;BMP280;27783;42.782;23.274;2023-04-15T11:08:08;94862.09;;;19.53
42119;BMP280;27783;42.782;23.274;2023-04-15T11:13:01;94858.34;;;19.91
42119;BMP280;27783;42.782;23.274;2023-04-15T11:17:52;94856.75;;;19.85
42119;BMP280;27783;42.782;23.274;2023-04-15T11:20:18;94847.09;;;19.56
42119;BMP280;27783;42.782;23.274;2023-04-15T11:22:47;94848.69;;;19.62
42119;BMP280;27783;42.782;23.274;2023-04-15T11:25:31;94843.75;;;19.38
42119;BMP280;27783;42.782;23.274;2023-04-15T11:27:57;94840.44;;;19.43
42119;BMP280;27783;42.782;23.274;2023-04-15T11:30:24;94848.75;;;19.76
42119;BMP280;27783;42.782;23.274;2023-04-15T11:32:50;94844.78;;;20.18
42119;BMP280;27783;42.782;23.274;2023-04-15T11:35:16;94845.75;;;20.06
42119;BMP280;27783;42.782;23.274;2023-04-15T11:37:42;94833.91;;;20.58
42119;BMP280;27783;42.782;23.274;2023-04-15T11:40:08;94832.41;;;20.20
42119;BMP280;27783;42.782;23.274;2023-04-15T11:42:33;94826.28;;;20.05
42119;BMP280;27783;42.782;23.274;2023-04-15T11:45:06;94829.66;;;20.15
42119;BMP280;27783;42.782;23.274;2023-04-15T11:47:31;94829.09;;;19.88
42119;BMP280;27783;42.782;23.274;2023-04-15T11:49:56;94827.00;;;20.29
42119;BMP280;27783;42.782;23.274;2023-04-15T11:52:22;94828.09;;;20.22
42119;BMP280;27783;42.782;23.274;2023-04-15T11:54:50;94825.03;;;20.52
42119;BMP280;27783;42.782;23.274;2023-04-15T11:57:15;94825.13;;;20.20
42119;BMP280;27783;42.782;23.274;2023-04-15T11:59:43;94824.28;;;20.52
42119;BMP280;27783;42.782;23.274;2023-04-15T12:02:10;94822.72;;;20.22
42119;BMP280;27783;42.782;23.274;2023-04-15T12:04:36;94816.19;;;20.74
42119;BMP280;27783;42.782;23.274;2023-04-15T12:07:05;94826.22;;;20.37
42119;BMP280;27783;42.782;23.274;2023-04-15T12:09:36;94819.09;;;20.48
42119;BMP280;27783;42.782;23.274;2023-04-15T12:12:01;94817.38;;;20.22
42119;BMP280;27783;42.782;23.274;2023-04-15T12:14:28;94815.16;;;20.44
42119;BMP280;27783;42.782;23.274;2023-04-15T12:16:55;94809.09;;;20.57
42119;BMP280;27783;42.782;23.274;2023-04-15T12:19:23;94823.44;;;20.09
42119;BMP280;27783;42.782;23.274;2023-04-15T12:21:49;94820.63;;;20.26
42119;BMP280;27783;42.782;23.274;2023-04-15T12:24:15;94814.69;;;20.31
42119;BMP280;27783;42.782;23.274;2023-04-15T12:26:44;94814.31;;;20.15
42119;BMP280;27783;42.782;23.274;2023-04-15T12:29:10;94809.53;;;20.70
42119;BMP280;27783;42.782;23.274;2023-04-15T12:31:36;94823.16;;;20.30
42119;BMP280;27783;42.782;23.274;2023-04-15T12:34:03;94819.19;;;20.39
42119;BMP280;27783;42.782;23.274;2023-04-15T12:36:31;94820.19;;;20.05
42119;BMP280;27783;42.782;23.274;2023-04-15T12:39:01;94814.47;;;20.12
42119;BMP280;27783;42.782;23.274;2023-04-15T12:41:26;94811.44;;;20.04
42119;BMP280;27783;42.782;23.274;2023-04-15T12:43:53;94822.31;;;20.38
42119;BMP280;27783;42.782;23.274;2023-04-15T12:46:18;94817.28;;;20.17
42119;BMP280;27783;42.782;23.274;2023-04-15T12:48:44;94822.50;;;20.12
42119;BMP280;27783;42.782;23.274;2023-04-15T12:51:09;94821.91;;;19.94
42119;BMP280;27783;42.782;23.274;2023-04-15T12:53:35;94821.97;;;20.45
42119;BMP280;27783;42.782;23.274;2023-04-15T12:56:01;94831.69;;;20.19
42119;BMP280;27783;42.782;23.274;2023-04-15T12:58:26;94835.19;;;20.48
42119;BMP280;27783;42.782;23.274;2023-04-15T13:00:52;94817.25;;;20.40
42119;BMP280;27783;42.782;23.274;2023-04-15T13:03:17;94821.06;;;20.48
42119;BMP280;27783;42.782;23.274;2023-04-15T13:05:43;94834.09;;;20.18
42119;BMP280;27783;42.782;23.274;2023-04-15T13:08:08;94837.56;;;20.09
42119;BMP280;27783;42.782;23.274;2023-04-15T13:10:34;94832.53;;;20.76
42119;BMP280;27783;42.782;23.274;2023-04-15T13:13:00;94818.97;;;21.08
42119;BMP280;27783;42.782;23.274;2023-04-15T13:15:26;94823.03;;;20.89
42119;BMP280;27783;42.782;23.274;2023-04-15T13:17:51;94825.53;;;20.79
42119;BMP280;27783;42.782;23.274;2023-04-15T13:20:18;94821.09;;;20.76
42119;BMP280;27783;42.782;23.274;2023-04-15T13:22:45;94819.22;;;20.53
42119;BMP280;27783;42.782;23.274;2023-04-15T13:25:10;94826.72;;;20.64
42119;BMP280;27783;42.782;23.274;2023-04-15T13:27:36;94829.91;;;20.17
42119;BMP280;27783;42.782;23.274;2023-04-15T13:30:02;94830.19;;;20.41
42119;BMP280;27783;42.782;23.274;2023-04-15T13:32:27;94821.44;;;20.41
42119;BMP280;27783;42.782;23.274;2023-04-15T13:34:52;94821.06;;;20.48
42119;BMP280;27783;42.782;23.274;2023-04-15T13:37:21;94831.09;;;20.38
42119;BMP280;27783;42.782;23.274;2023-04-15T13:39:49;94821.69;;;20.43
42119;BMP280;27783;42.782;23.274;2023-04-15T13:42:15;94815.66;;;20.70
42119;BMP280;27783;42.782;23.274;2023-04-15T13:44:40;94817.72;;;20.38
42119;BMP280;27783;42.782;23.274;2023-04-15T13:47:05;94814.97;;;20.47
42119;BMP280;27783;42.782;23.274;2023-04-15T13:49:31;94807.31;;;20.69
42119;BMP280;27783;42.782;23.274;2023-04-15T13:51:56;94804.75;;;20.74
42119;BMP280;27783;42.782;23.274;2023-04-15T13:54:21;94809.63;;;20.47
42119;BMP280;27783;42.782;23.274;2023-04-15T13:56:47;94813.97;;;20.22
42119;BMP280;27783;42.782;23.274;2023-04-15T13:59:12;94820.03;;;19.86
42119;BMP280;27783;42.782;23.274;2023-04-15T14:01:38;94807.47;;;20.51
42119;BMP280;27783;42.782;23.274;2023-04-15T14:04:05;94801.53;;;19.96
42119;BMP280;27783;42.782;23.274;2023-04-15T14:06:30;94800.41;;;20.25
42119;BMP280;27783;42.782;23.274;2023-04-15T14:08:56;94804.72;;;20.46
42119;BMP280;27783;42.782;23.274;2023-04-15T14:11:21;94802.88;;;20.52
42119;BMP280;27783;42.782;23.274;2023-04-15T14:13:46;94809.31;;;20.45